Terminal Aerodrome Forecast
Issued by NWS

Current Version | Previous Version | Graphics & Text | Print | Product List | Glossary On
Versions: 1 2 3 4 5 6 7 8 9 10 11 12 13 14 15 16 17 18 19
000
FTUS41 KRNK 190832 AAA
TAFLWB
TAF AMD
KLWB 190832Z 1909/2006 00000KT P6SM OVC007
     FM191600 VRB03KT P6SM SCT150 OVC250
     FM192200 VRB03KT P6SM BKN150=

USA.gov is the U.S. government's official web portal to all federal, state and local government web resources and services.